Felipe Camarao — PPNM — position and weather

sailwx.info

Track history (hours):
 
Tides and Currents Weather Stations Pressure Air Temp Water Temp Dewpoint Dewpoint Depression Visibility Wind Speed Wind Dir Waves Ship Positions

Felipe Camarao

Last reported at 2017-Dec-20 20:43 UTC. Time now 2018-Jan-22 15:48 UTC.
Position S 24°18' W 044°48'.
Warning: this ship's position is 32 days out of date.

Type: Tanker. MMSI: 710239000.

Date/timePositionNaut miles runAvg speedWind from/ knotsBaromVisibWave heightAir tempDewpointWater temp
2017-Dec-20 20:43S 24°18' W 044°48'1412.7
2017-Dec-20 19:37S 24°27' W 045°00'212.9
2017-Dec-20 19:29S 24°28' W 045°02'712.8
2017-Dec-20 18:56S 24°33' W 045°07'1312.6
2017-Dec-20 17:53S 24°42' W 045°17'1412.8
2017-Dec-20 16:46S 24°52' W 045°29'1113.0
2017-Dec-20 15:57S 24°60' W 045°37'32 6.5
2017-Dec-20 11:04S 25°22' W 046°02'2 7.8
2017-Dec-20 10:47S 25°23' W 046°04'  
Track history (hours):
 
Tides and Currents Weather Stations Pressure Air Temp Water Temp Dewpoint Dewpoint Depression Visibility Wind Speed Wind Dir Waves Ship Positions

Felipe Camarao

Last reported at 2017-Dec-20 20:43 UTC. Time now 2018-Jan-22 15:48 UTC.
Position S 24°18' W 044°48'.
Warning: this ship's position is 32 days out of date.

Type: Tanker. MMSI: 710239000.

Date/timePositionNaut miles runAvg speedWind from/ knotsBaromVisibWave heightAir tempDewpointWater temp
2017-Dec-20 20:43S 24°18' W 044°48'1412.7
2017-Dec-20 19:37S 24°27' W 045°00'212.9
2017-Dec-20 19:29S 24°28' W 045°02'712.8
2017-Dec-20 18:56S 24°33' W 045°07'1312.6
2017-Dec-20 17:53S 24°42' W 045°17'1412.8
2017-Dec-20 16:46S 24°52' W 045°29'1113.0
2017-Dec-20 15:57S 24°60' W 045°37'32 6.5
2017-Dec-20 11:04S 25°22' W 046°02'2 7.8
2017-Dec-20 10:47S 25°23' W 046°04'  

Dump ship's entire track history